Time;durP1;ratioP1;P1;durP2;ratioP2;P2;SDS_P1;SDS_P2;PMS_P1;PMS_P2;Temp;Humidity;BMP_temperature;BMP_pressure;BME280_temperature;BME280_humidity;BME280_pressure;Samples;Min_cycle;Max_cycle;Signal;HPM_P1;HPM_P2
2022/07/21 00:01:21;;;;;;;4.95;2.67;;;;;;;20.72;89.27;101647.28;5036446;28;20071;-69
2022/07/21 00:03:47;;;;;;;4.70;2.00;;;;;;;20.87;88.83;101665.94;5035012;28;20392;-69
2022/07/21 00:06:12;;;;;;;6.18;2.60;;;;;;;20.72;90.02;101667.94;5035759;28;20464;-69
2022/07/21 00:08:37;;;;;;;4.57;2.22;;;;;;;20.57;90.73;101677.91;5034062;28;20049;-69
2022/07/21 00:11:03;;;;;;;5.65;2.38;;;;;;;20.52;91.96;101671.28;5038305;28;20489;-69
2022/07/21 00:13:28;;;;;;;3.00;2.17;;;;;;;20.49;91.16;101677.03;5035287;28;20030;-69
2022/07/21 00:15:54;;;;;;;7.72;2.60;;;;;;;20.34;92.64;101663.72;5034974;28;20021;-70
2022/07/21 00:18:20;;;;;;;4.50;2.28;;;;;;;20.11;93.72;101655.09;5035770;28;20048;-69
2022/07/21 00:20:46;;;;;;;5.05;3.03;;;;;;;20.14;94.13;101679.66;5019257;28;20033;-69
2022/07/21 00:23:11;;;;;;;9.23;3.63;;;;;;;20.09;95.25;101679.38;5036585;28;20079;-68
2022/07/21 00:25:37;;;;;;;4.82;2.22;;;;;;;20.17;94.52;101667.72;5034161;28;20030;-68
2022/07/21 00:28:04;;;;;;;3.22;2.05;;;;;;;20.30;93.63;101667.00;5035054;28;20025;-68
2022/07/21 00:30:29;;;;;;;5.18;2.33;;;;;;;20.40;93.24;101667.47;5036985;28;20021;-68
2022/07/21 00:32:55;;;;;;;4.78;2.40;;;;;;;20.45;93.43;101666.91;5036914;28;20371;-68
2022/07/21 00:35:20;;;;;;;8.07;2.47;;;;;;;20.46;93.14;101669.38;5039244;28;20014;-68
2022/07/21 00:37:46;;;;;;;3.28;1.67;;;;;;;20.53;92.16;101654.19;5039492;28;20161;-68
2022/07/21 00:40:13;;;;;;;4.88;2.90;;;;;;;20.45;92.28;101618.66;5037629;28;20033;-68
2022/07/21 00:42:40;;;;;;;5.03;2.65;;;;;;;20.30;93.84;101613.38;5036375;28;20036;-69
2022/07/21 00:45:06;;;;;;;3.50;1.98;;;;;;;20.35;94.50;101627.84;5035828;28;20124;-69
2022/07/21 00:47:32;;;;;;;2.67;1.98;;;;;;;20.35;94.35;101640.44;5038904;28;20029;-69
2022/07/21 00:50:00;;;;;;;8.57;2.90;;;;;;;20.29;95.17;101655.44;5038370;28;20037;-69
2022/07/21 00:52:26;;;;;;;4.88;2.30;;;;;;;20.16;95.93;101659.88;5038925;28;20026;-69
2022/07/21 00:54:52;;;;;;;5.40;2.75;;;;;;;19.86;98.08;101638.56;5039456;28;20040;-68
2022/07/21 00:57:17;;;;;;;6.25;3.90;;;;;;;19.98;98.87;101663.84;5036050;28;20111;-68
2022/07/21 00:59:44;;;;;;;6.90;2.45;;;;;;;20.00;98.75;101667.16;5022087;28;20029;-68
2022/07/21 01:02:09;;;;;;;5.65;2.45;;;;;;;19.82;99.57;101688.22;5037021;28;20030;-68
2022/07/21 01:04:35;;;;;;;3.67;2.70;;;;;;;19.79;100.00;101696.63;5040243;28;20032;-68
2022/07/21 01:07:02;;;;;;;6.53;2.83;;;;;;;19.66;100.00;101686.56;5035325;28;20028;-68
2022/07/21 01:09:28;;;;;;;3.28;2.47;;;;;;;19.83;100.00;101724.69;5035713;28;20095;-68
2022/07/21 01:11:53;;;;;;;5.80;2.72;;;;;;;19.89;100.00;101723.94;5036882;28;20021;-68
2022/07/21 01:17:42;;;;;;;3.88;2.40;;;;;;;19.35;100.00;101716.28;5036971;28;20068;-68
2022/07/21 01:20:11;;;;;;;6.07;3.55;;;;;;;19.29;100.00;101712.47;5037368;28;20029;-69
2022/07/21 01:22:40;;;;;;;5.93;3.17;;;;;;;19.16;100.00;101698.94;5036269;28;20436;-69
2022/07/21 01:25:07;;;;;;;4.97;2.78;;;;;;;19.00;100.00;101713.34;5036944;28;20017;-69
2022/07/21 01:27:32;;;;;;;6.30;3.25;;;;;;;18.87;100.00;101730.84;5034395;28;20091;-69
2022/07/21 01:29:58;;;;;;;7.28;3.80;;;;;;;18.85;100.00;101748.94;5035897;28;20127;-69
2022/07/21 01:32:24;;;;;;;6.43;2.70;;;;;;;18.83;100.00;101747.44;5036701;28;20482;-69
2022/07/21 01:34:50;;;;;;;5.55;3.30;;;;;;;18.93;100.00;101761.41;5038811;28;20061;-69
2022/07/21 01:37:20;;;;;;;5.75;2.88;;;;;;;18.86;100.00;101765.81;5036356;28;20108;-69
2022/07/21 01:42:31;;;;;;;5.13;2.83;;;;;;;18.91;100.00;101771.44;5025137;28;20040;-69
2022/07/21 01:44:57;;;;;;;4.40;3.25;;;;;;;18.80;100.00;101751.31;5037261;28;20470;-69
2022/07/21 01:47:23;;;;;;;5.05;2.65;;;;;;;18.97;100.00;101757.34;5037668;28;20034;-69
2022/07/21 01:49:48;;;;;;;6.70;2.40;;;;;;;19.04;100.00;101744.88;5034746;28;20047;-69
2022/07/21 01:52:14;;;;;;;4.18;2.55;;;;;;;19.03;100.00;101699.59;5037504;28;20104;-70
2022/07/21 01:54:39;;;;;;;3.58;2.67;;;;;;;19.18;100.00;101694.22;5036835;28;20034;-69
2022/07/21 01:57:05;;;;;;;7.10;2.97;;;;;;;19.23;100.00;101719.44;5037970;28;20135;-69
2022/07/21 01:59:30;;;;;;;5.53;2.88;;;;;;;19.01;100.00;101744.41;5033080;28;20034;-69
2022/07/21 02:01:55;;;;;;;4.75;3.03;;;;;;;19.00;100.00;101740.09;5036977;28;20049;-69
2022/07/21 02:04:21;;;;;;;9.57;3.95;;;;;;;18.80;100.00;101724.59;5037644;28;20049;-70
2022/07/21 02:06:46;;;;;;;9.48;3.75;;;;;;;18.77;100.00;101735.63;5035106;28;20043;-71
2022/07/21 02:09:12;;;;;;;7.85;3.40;;;;;;;18.80;100.00;101721.09;5036206;28;20022;-69
2022/07/21 02:11:38;;;;;;;7.47;3.30;;;;;;;18.91;100.00;101684.00;5040161;28;20423;-69
2022/07/21 02:14:03;;;;;;;8.10;2.92;;;;;;;18.89;100.00;101643.25;5038661;28;20061;-69
2022/07/21 02:16:28;;;;;;;8.00;2.83;;;;;;;18.98;100.00;101597.66;5041437;28;20078;-70
2022/07/21 02:18:54;;;;;;;4.97;2.92;;;;;;;19.20;100.00;101585.16;5037715;28;20587;-69
2022/07/21 02:21:19;;;;;;;6.30;4.05;;;;;;;19.29;100.00;101611.63;5040147;28;20102;-69
2022/07/21 02:23:48;;;;;;;7.40;3.28;;;;;;;19.27;100.00;101612.81;5036514;28;20025;-69
2022/07/21 02:26:13;;;;;;;5.55;2.50;;;;;;;19.27;100.00;101592.25;5041047;28;20061;-69
2022/07/21 02:28:39;;;;;;;6.10;3.67;;;;;;;19.26;100.00;101582.56;5041234;28;20040;-70
2022/07/21 02:31:06;;;;;;;4.93;3.30;;;;;;;19.44;100.00;101621.44;5034720;28;20040;-69
2022/07/21 02:33:31;;;;;;;4.32;2.20;;;;;;;19.48;100.00;101614.69;5055244;28;20036;-69
2022/07/21 02:35:56;;;;;;;4.10;2.95;;;;;;;19.52;100.00;101616.81;5036930;28;20029;-69
2022/07/21 02:38:22;;;;;;;5.00;2.40;;;;;;;19.54;100.00;101600.56;5037190;28;20039;-69
2022/07/21 02:40:47;;;;;;;3.92;2.15;;;;;;;19.59;100.00;101603.47;5036811;28;20513;-69
2022/07/21 02:43:13;;;;;;;10.85;3.00;;;;;;;19.67;100.00;101606.03;5036298;28;20022;-69
2022/07/21 02:45:39;;;;;;;4.10;2.67;;;;;;;19.69;100.00;101614.75;5033850;28;20516;-69
2022/07/21 02:48:08;;;;;;;4.63;3.72;;;;;;;19.67;100.00;101622.09;5038879;28;20051;-69
2022/07/21 02:50:36;;;;;;;4.80;3.15;;;;;;;19.62;100.00;101624.53;5037098;28;20571;-70
2022/07/21 02:53:05;;;;;;;7.97;3.70;;;;;;;19.67;100.00;101623.97;5033981;28;20036;-69
2022/07/21 02:55:30;;;;;;;7.60;3.90;;;;;;;19.47;100.00;101623.75;5036792;28;20120;-69
2022/07/21 02:58:15;;;;;;;7.70;3.90;;;;;;;19.29;100.00;101643.75;5037082;28;20108;-69
2022/07/21 03:00:52;;;;;;;4.45;3.65;;;;;;;19.16;100.00;101638.22;5034134;28;20069;-69
2022/07/21 03:03:19;;;;;;;7.50;4.75;;;;;;;19.13;100.00;101661.88;5042055;28;20027;-69
2022/07/21 03:05:46;;;;;;;8.73;5.18;;;;;;;18.97;100.00;101670.94;5036832;28;20103;-70
2022/07/21 03:08:13;;;;;;;6.93;3.88;;;;;;;18.62;100.00;101652.72;5038768;28;20044;-69
2022/07/21 03:10:40;;;;;;;6.63;3.72;;;;;;;18.63;100.00;101681.09;5034164;28;20033;-69
2022/07/21 03:13:06;;;;;;;9.65;5.03;;;;;;;18.54;100.00;101676.84;5034843;28;20300;-69
2022/07/21 03:15:32;;;;;;;11.95;4.90;;;;;;;18.54;100.00;101689.41;5037466;28;20350;-69
2022/07/21 03:17:57;;;;;;;12.75;5.00;;;;;;;18.48;100.00;101675.72;5034196;28;20040;-69
2022/07/21 03:20:27;;;;;;;9.65;4.63;;;;;;;18.46;100.00;101690.28;5039388;28;20037;-69
2022/07/21 03:22:53;;;;;;;7.78;3.85;;;;;;;18.43;100.00;101683.47;5037029;28;20070;-69
2022/07/21 03:25:19;;;;;;;8.32;4.57;;;;;;;18.40;100.00;101681.19;5035914;28;20432;-69
2022/07/21 03:27:46;;;;;;;7.65;4.43;;;;;;;18.43;100.00;101678.13;5037365;28;20560;-69
2022/07/21 03:30:12;;;;;;;12.38;4.70;;;;;;;18.52;100.00;101672.72;5034316;28;20385;-69
2022/07/21 03:32:38;;;;;;;12.32;5.15;;;;;;;18.56;100.00;101676.69;5039258;28;20032;-69
2022/07/21 03:35:05;;;;;;;8.02;4.47;;;;;;;18.58;100.00;101677.34;5035804;28;20033;-69
2022/07/21 03:37:30;;;;;;;12.57;5.55;;;;;;;18.52;100.00;101667.38;5036557;28;20030;-69
2022/07/21 03:39:56;;;;;;;20.30;6.30;;;;;;;18.44;100.00;101674.47;5035245;28;20036;-69
2022/07/21 03:42:21;;;;;;;12.50;4.85;;;;;;;18.31;100.00;101644.81;5036181;28;20030;-69
2022/07/21 03:44:47;;;;;;;6.13;4.65;;;;;;;18.30;100.00;101621.81;5034477;28;20029;-69
2022/07/21 03:47:12;;;;;;;12.60;5.07;;;;;;;18.59;100.00;101634.34;5033800;28;20109;-69
2022/07/21 03:49:37;;;;;;;9.40;5.50;;;;;;;18.56;100.00;101623.22;5034077;28;20482;-69
2022/07/21 03:52:03;;;;;;;6.20;5.55;;;;;;;18.72;100.00;101615.00;5035907;28;20032;-69
2022/07/21 03:54:29;;;;;;;8.95;3.47;;;;;;;18.71;100.00;101595.47;5034041;28;20025;-69
2022/07/21 03:56:54;;;;;;;6.38;3.95;;;;;;;18.87;100.00;101597.13;5031558;28;20067;-69
2022/07/21 03:59:19;;;;;;;6.90;4.22;;;;;;;19.06;100.00;101609.09;5038501;28;20068;-69
2022/07/21 04:01:45;;;;;;;7.28;4.82;;;;;;;19.05;100.00;101601.25;5039974;28;20133;-69
2022/07/21 04:04:10;;;;;;;7.68;4.28;;;;;;;19.01;100.00;101591.94;5037042;28;20060;-69
2022/07/21 04:06:35;;;;;;;10.38;4.13;;;;;;;19.00;100.00;101607.16;5014719;28;20097;-69
2022/07/21 04:09:01;;;;;;;7.10;4.00;;;;;;;19.02;100.00;101596.28;5035141;28;20024;-69
2022/07/21 04:11:27;;;;;;;6.40;4.15;;;;;;;19.07;100.00;101591.19;5042625;28;20032;-69
2022/07/21 04:13:52;;;;;;;10.43;5.85;;;;;;;19.02;100.00;101598.97;5043396;28;20021;-69
2022/07/21 04:16:17;;;;;;;9.98;4.93;;;;;;;18.89;100.00;101600.44;5037838;28;20104;-68
2022/07/21 04:18:43;;;;;;;10.80;4.82;;;;;;;18.90;100.00;101596.78;5041951;28;20029;-68
2022/07/21 04:21:08;;;;;;;10.00;4.88;;;;;;;18.79;100.00;101585.69;5040498;28;20108;-68
2022/07/21 04:23:33;;;;;;;9.93;5.10;;;;;;;18.89;100.00;101600.44;5040442;28;20029;-68
2022/07/21 04:25:59;;;;;;;9.38;4.50;;;;;;;18.83;100.00;101608.38;5040210;28;20029;-68
2022/07/21 04:28:24;;;;;;;12.70;6.28;;;;;;;18.77;100.00;101609.94;5035964;28;20547;-68
2022/07/21 04:30:49;;;;;;;10.88;5.72;;;;;;;18.79;100.00;101615.97;5045788;28;20037;-68
2022/07/21 04:33:15;;;;;;;9.82;5.10;;;;;;;18.80;100.00;101611.44;5036144;28;20021;-68
2022/07/21 04:35:40;;;;;;;13.48;5.95;;;;;;;18.83;100.00;101616.41;5040410;28;20065;-68
2022/07/21 04:38:08;;;;;;;9.88;4.80;;;;;;;18.64;100.00;101599.03;5037695;28;20033;-68
2022/07/21 04:40:33;;;;;;;9.38;5.10;;;;;;;18.71;100.00;101616.03;5020821;28;20033;-68
2022/07/21 04:42:58;;;;;;;6.43;4.22;;;;;;;18.61;100.00;101612.78;5042815;28;20085;-68
2022/07/21 04:45:24;;;;;;;8.57;5.47;;;;;;;18.62;100.00;101606.44;5035466;28;20053;-68
2022/07/21 04:47:52;;;;;;;10.65;5.05;;;;;;;18.60;100.00;101611.16;5043002;28;20041;-68
2022/07/21 04:50:19;;;;;;;9.32;4.85;;;;;;;18.64;100.00;101613.25;5033926;28;20029;-69
2022/07/21 04:52:45;;;;;;;11.65;4.50;;;;;;;18.60;100.00;101592.44;5042809;28;20057;-69
2022/07/21 04:55:11;;;;;;;8.90;4.75;;;;;;;18.70;100.00;101598.31;5039608;28;20139;-70
2022/07/21 04:57:41;;;;;;;8.02;4.60;;;;;;;18.67;100.00;101604.88;5043384;28;20051;-69
2022/07/21 05:00:09;;;;;;;12.13;5.70;;;;;;;18.67;100.00;101612.06;5044757;28;20049;-69
2022/07/21 05:02:35;;;;;;;9.55;5.07;;;;;;;18.82;100.00;101615.59;5041238;28;20021;-69
2022/07/21 05:05:01;;;;;;;7.78;5.53;;;;;;;18.81;100.00;101613.09;5045941;28;20029;-69
2022/07/21 05:07:27;;;;;;;7.25;5.35;;;;;;;18.84;100.00;101602.84;5040227;28;20466;-69
2022/07/21 05:09:52;;;;;;;10.07;5.43;;;;;;;18.97;100.00;101596.03;5046204;28;20021;-70
2022/07/21 05:12:18;;;;;;;10.05;5.93;;;;;;;19.02;100.00;101604.31;5035540;28;20087;-69
2022/07/21 05:14:43;;;;;;;12.05;5.80;;;;;;;19.01;100.00;101605.31;5037808;28;20162;-69
2022/07/21 05:17:08;;;;;;;8.40;5.70;;;;;;;19.03;100.00;101595.25;5040285;28;20400;-69
2022/07/21 05:19:34;;;;;;;8.05;5.03;;;;;;;19.05;100.00;101601.25;5034212;28;20445;-69
2022/07/21 05:21:59;;;;;;;8.63;5.43;;;;;;;18.95;100.00;101598.06;5041442;28;20808;-69
2022/07/21 05:24:25;;;;;;;9.75;6.07;;;;;;;19.06;100.00;101605.59;5039873;28;20207;-69
2022/07/21 05:26:50;;;;;;;10.23;5.78;;;;;;;19.02;100.00;101598.97;5040469;28;20056;-68
2022/07/21 05:29:15;;;;;;;7.93;5.00;;;;;;;19.06;100.00;101605.59;5037132;28;20036;-71
2022/07/21 05:31:41;;;;;;;12.07;6.07;;;;;;;19.09;100.00;101606.03;5044128;28;20028;-68
2022/07/21 05:34:06;;;;;;;10.32;6.20;;;;;;;19.14;100.00;101596.63;5033777;28;20033;-70
2022/07/21 05:36:31;;;;;;;11.13;6.00;;;;;;;19.06;100.00;101592.22;5029593;28;20035;-69
2022/07/21 05:38:57;;;;;;;10.32;6.53;;;;;;;19.09;100.00;101594.50;5033580;28;20032;-68
2022/07/21 05:41:22;;;;;;;13.13;7.15;;;;;;;19.27;100.00;101602.13;5033099;28;20551;-68
2022/07/21 05:43:48;;;;;;;17.48;8.32;;;;;;;19.46;100.00;101611.38;5028014;28;20034;-71
2022/07/21 05:46:14;;;;;;;13.85;9.18;;;;;;;19.62;100.00;101600.44;5034079;28;20084;-70
2022/07/21 05:48:39;;;;;;;16.10;7.68;;;;;;;19.88;100.00;101607.91;5029638;28;20041;-72
2022/07/21 05:51:05;;;;;;;13.98;7.72;;;;;;;19.87;100.00;101603.56;5028999;28;20108;-70
2022/07/21 05:53:31;;;;;;;14.30;7.47;;;;;;;19.97;100.00;101587.19;5032341;28;20144;-70
2022/07/21 05:55:56;;;;;;;13.02;7.72;;;;;;;20.22;100.00;101597.44;5027291;28;20901;-71
2022/07/21 05:58:24;;;;;;;12.15;7.10;;;;;;;20.22;100.00;101582.19;5031567;28;20412;-70
2022/07/21 06:03:42;;;;;;;11.77;7.50;;;;;;;20.44;100.00;101596.34;5030176;28;20159;-71
2022/07/21 06:06:08;;;;;;;13.25;8.88;;;;;;;20.43;100.00;101602.75;5030874;28;20039;-71
2022/07/21 06:08:36;;;;;;;12.55;8.05;;;;;;;20.34;100.00;101603.94;5032535;28;20087;-72
2022/07/21 06:11:01;;;;;;;13.25;8.30;;;;;;;20.44;100.00;101609.75;5032517;28;20029;-71
2022/07/21 06:13:26;;;;;;;12.10;7.25;;;;;;;20.39;100.00;101600.66;5034591;28;20087;-70
2022/07/21 06:15:52;;;;;;;10.48;7.70;;;;;;;20.59;100.00;101608.84;5028541;28;20541;-70
2022/07/21 06:18:18;;;;;;;11.80;7.10;;;;;;;20.65;100.00;101606.19;5035560;28;20135;-71
2022/07/21 06:20:43;;;;;;;15.02;7.35;;;;;;;20.72;100.00;101598.19;5034376;28;20017;-71
2022/07/21 06:23:08;;;;;;;9.07;6.55;;;;;;;20.87;100.00;101598.88;5031612;28;20456;-71
2022/07/21 06:25:34;;;;;;;10.55;6.88;;;;;;;20.86;100.00;101601.75;5032348;28;20095;-71
2022/07/21 06:27:59;;;;;;;11.10;6.80;;;;;;;20.71;100.00;101594.69;5040828;28;20124;-71
2022/07/21 06:30:25;;;;;;;8.57;7.00;;;;;;;20.51;100.00;101597.22;5032901;28;20036;-71
2022/07/21 06:32:50;;;;;;;10.13;6.28;;;;;;;20.70;100.00;101608.28;5035358;28;20111;-71
2022/07/21 06:35:16;;;;;;;8.05;6.50;;;;;;;20.84;100.00;101598.44;5040703;28;20071;-70
2022/07/21 06:37:46;;;;;;;9.82;6.10;;;;;;;20.90;100.00;101582.38;5036549;28;20059;-70
2022/07/21 06:40:11;;;;;;;12.50;6.63;;;;;;;20.90;100.00;101598.47;5040909;28;20032;-70
2022/07/21 06:42:37;;;;;;;11.55;6.68;;;;;;;20.95;100.00;101606.75;5039959;28;20021;-71
2022/07/21 06:45:03;;;;;;;8.38;5.85;;;;;;;20.86;100.00;101599.91;5039721;28;20131;-71
2022/07/21 06:47:29;;;;;;;7.25;5.82;;;;;;;20.93;100.00;101591.88;5036125;28;20028;-71
2022/07/21 06:49:54;;;;;;;12.70;7.13;;;;;;;20.63;100.00;101581.44;5040831;28;20475;-71
2022/07/21 06:52:20;;;;;;;11.00;6.72;;;;;;;20.69;100.00;101601.28;5020670;28;20087;-71
2022/07/21 06:54:45;;;;;;;12.32;7.15;;;;;;;20.78;100.00;101610.81;5039199;28;20028;-71
2022/07/21 06:57:11;;;;;;;7.90;5.88;;;;;;;20.84;100.00;101614.53;5032919;28;20063;-71
2022/07/21 06:59:36;;;;;;;9.38;5.82;;;;;;;20.75;100.00;101605.81;5036833;28;20052;-71
2022/07/21 07:02:02;;;;;;;11.05;7.75;;;;;;;20.98;100.00;101621.63;5010805;28;20049;-71
2022/07/21 07:04:27;;;;;;;11.50;6.88;;;;;;;21.00;100.00;101624.94;5037449;28;20083;-71
2022/07/21 07:06:55;;;;;;;10.68;7.20;;;;;;;20.77;100.00;101627.09;5038116;28;20028;-71
2022/07/21 07:09:21;;;;;;;14.68;7.78;;;;;;;20.72;100.00;101616.97;5034703;28;20030;-71
2022/07/21 07:11:46;;;;;;;12.23;6.97;;;;;;;20.96;100.00;101626.38;5038656;28;20405;-71
2022/07/21 07:14:13;;;;;;;9.80;6.90;;;;;;;21.16;100.00;101624.59;5036134;28;20445;-71
2022/07/21 07:16:39;;;;;;;11.07;7.10;;;;;;;21.25;100.00;101617.19;5037271;28;20041;-71
2022/07/21 07:19:05;;;;;;;12.32;6.43;;;;;;;21.17;100.00;101620.06;5034053;28;20025;-71
2022/07/21 07:21:31;;;;;;;11.98;6.70;;;;;;;21.00;100.00;101622.25;5021384;28;20032;-71
2022/07/21 07:23:56;;;;;;;9.65;5.60;;;;;;;20.92;100.00;101612.50;5033553;28;20076;-71
2022/07/21 07:26:22;;;;;;;10.77;6.10;;;;;;;20.90;100.00;101603.00;5040042;28;20037;-71
2022/07/21 07:28:47;;;;;;;9.68;7.13;;;;;;;21.04;100.00;101625.38;5038525;28;20029;-71
2022/07/21 07:31:12;;;;;;;11.15;7.68;;;;;;;21.01;100.00;101623.91;5036807;28;20033;-71
2022/07/21 07:33:38;;;;;;;12.30;8.15;;;;;;;20.79;100.00;101623.19;5037225;28;20516;-71
2022/07/21 07:36:03;;;;;;;9.77;6.50;;;;;;;20.50;100.00;101629.59;5038717;28;20036;-71
2022/07/21 07:38:29;;;;;;;10.52;6.93;;;;;;;20.39;100.00;101625.59;5042334;28;20044;-71
2022/07/21 07:40:54;;;;;;;9.95;6.35;;;;;;;20.36;100.00;101628.69;5036223;28;20056;-71
2022/07/21 07:43:20;;;;;;;12.98;7.45;;;;;;;20.52;100.00;101614.97;5034397;28;20382;-71
2022/07/21 07:45:45;;;;;;;8.88;6.53;;;;;;;20.68;100.00;101613.03;5038905;28;20032;-71
2022/07/21 07:48:10;;;;;;;8.82;6.07;;;;;;;20.90;100.00;101611.88;5039360;28;20687;-71
2022/07/21 07:50:36;;;;;;;10.18;6.40;;;;;;;21.06;100.00;101607.22;5030642;28;20378;-71
2022/07/21 07:53:01;;;;;;;10.82;6.45;;;;;;;21.21;100.00;101607.88;5036177;28;20378;-71
2022/07/21 07:55:27;;;;;;;12.43;7.95;;;;;;;21.23;100.00;101610.34;5037411;28;20112;-71
2022/07/21 07:57:52;;;;;;;10.05;7.13;;;;;;;20.88;100.00;101624.69;5040759;28;20032;-71
2022/07/21 08:00:19;;;;;;;12.13;6.75;;;;;;;20.68;100.00;101629.94;5037297;28;20159;-71
2022/07/21 08:02:45;;;;;;;10.68;7.10;;;;;;;20.53;100.00;101608.59;5032573;28;20533;-71
2022/07/21 08:05:11;;;;;;;8.43;6.18;;;;;;;20.35;100.00;101627.03;5031415;28;20017;-71
2022/07/21 08:07:38;;;;;;;11.32;7.65;;;;;;;20.16;100.00;101633.06;5036730;28;20551;-71
2022/07/21 08:10:09;;;;;;;12.85;6.47;;;;;;;19.90;100.00;101639.84;5035073;28;20075;-71
2022/07/21 08:12:35;;;;;;;12.00;7.97;;;;;;;19.75;100.00;101639.09;5034902;28;20034;-71
2022/07/21 08:15:01;;;;;;;10.50;7.40;;;;;;;19.79;100.00;101635.84;5038313;28;20032;-71
2022/07/21 08:17:27;;;;;;;10.48;7.65;;;;;;;19.96;100.00;101638.25;5034766;28;20060;-71
2022/07/21 08:19:52;;;;;;;12.52;8.27;;;;;;;19.96;100.00;101639.09;5031762;28;20037;-71
2022/07/21 08:22:18;;;;;;;12.98;7.35;;;;;;;19.93;100.00;101626.09;5041744;28;20423;-71
2022/07/21 08:24:43;;;;;;;12.43;7.35;;;;;;;20.00;100.00;101628.81;5039351;28;20021;-71
2022/07/21 08:27:08;;;;;;;10.60;6.75;;;;;;;20.19;100.00;101635.38;5034747;28;20638;-71
2022/07/21 08:29:34;;;;;;;9.65;6.97;;;;;;;20.10;100.00;101638.19;5035870;28;20060;-71
2022/07/21 08:32:00;;;;;;;14.68;8.82;;;;;;;20.15;100.00;101637.59;5036175;28;20021;-71
2022/07/21 08:34:27;;;;;;;10.15;8.32;;;;;;;20.09;100.00;101639.19;5027290;28;20025;-71
2022/07/21 08:36:53;;;;;;;11.10;7.40;;;;;;;20.26;100.00;101638.94;5034838;28;20037;-71
2022/07/21 08:39:18;;;;;;;10.45;6.88;;;;;;;20.39;100.00;101644.38;5034540;28;20032;-71
2022/07/21 08:41:44;;;;;;;10.15;7.32;;;;;;;20.52;100.00;101628.38;5032538;28;20052;-71
2022/07/21 08:44:10;;;;;;;11.65;7.72;;;;;;;20.72;100.00;101639.25;5031196;28;20029;-71
2022/07/21 08:46:38;;;;;;;11.95;7.05;;;;;;;21.04;100.00;101633.44;5032131;28;20409;-71
2022/07/21 08:49:05;;;;;;;13.32;8.13;;;;;;;21.08;100.00;101637.38;5036006;28;20033;-71
2022/07/21 08:51:34;;;;;;;8.57;6.68;;;;;;;21.10;100.00;101629.91;5029824;28;20052;-71
2022/07/21 08:54:00;;;;;;;7.57;6.07;;;;;;;21.13;100.00;101634.91;5036357;28;20036;-71
2022/07/21 08:56:26;;;;;;;12.30;7.82;;;;;;;21.23;99.87;101640.72;5039588;28;20029;-71
2022/07/21 08:58:51;;;;;;;11.77;8.60;;;;;;;21.28;99.04;101626.69;5044729;28;20040;-71
2022/07/21 09:01:17;;;;;;;14.20;8.35;;;;;;;21.44;99.57;101644.31;5038867;28;20045;-71
2022/07/21 09:03:42;;;;;;;13.60;8.32;;;;;;;21.49;98.21;101640.00;5037735;28;20069;-71
2022/07/21 09:06:11;;;;;;;13.50;8.80;;;;;;;21.52;96.00;101638.78;5041105;28;20022;-71
2022/07/21 09:08:36;;;;;;;9.77;7.30;;;;;;;21.81;97.01;101640.25;5035428;28;20052;-71
2022/07/21 09:11:32;;;;;;;10.25;7.20;;;;;;;22.37;95.58;101644.41;5042891;28;20029;-71
2022/07/21 09:14:07;;;;;;;12.88;8.48;;;;;;;22.54;92.25;101644.81;5021634;28;20371;-71
2022/07/21 09:16:37;;;;;;;10.90;7.80;;;;;;;22.06;92.85;101621.66;5020573;28;20033;-71
2022/07/21 09:19:04;;;;;;;8.38;6.38;;;;;;;23.05;94.29;101629.78;5025861;28;20037;-71
2022/07/21 09:21:30;;;;;;;9.57;7.22;;;;;;;23.98;88.13;101637.31;5024064;28;20120;-71
2022/07/21 09:24:29;;;;;;;9.98;7.50;;;;;;;25.15;79.82;101636.47;5021740;28;20330;-71
2022/07/21 09:26:57;;;;;;;11.30;7.57;;;;;;;25.70;77.12;101641.78;5023349;28;20394;-71
2022/07/21 09:29:23;;;;;;;10.70;7.85;;;;;;;26.39;73.89;101638.53;5025097;28;20033;-71
2022/07/21 09:31:48;;;;;;;14.68;8.07;;;;;;;25.88;73.69;101640.88;5019167;28;20463;-71
2022/07/21 09:34:14;;;;;;;9.15;6.60;;;;;;;25.11;77.19;101641.53;5008965;28;20064;-71
2022/07/21 09:36:54;;;;;;;14.57;7.20;;;;;;;24.68;74.99;101642.47;4996281;28;20042;-71
2022/07/21 09:39:40;;;;;;;;;;;;;;;25.14;77.46;101645.66;5024716;28;20045;-71
2022/07/21 09:42:41;;;;;;;13.40;7.63;;;;;;;25.13;77.64;101654.78;5024253;28;19951;-71
2022/07/21 09:45:09;;;;;;;9.88;6.43;;;;;;;24.51;76.85;101642.22;5024776;28;20038;-71
2022/07/21 09:47:38;;;;;;;11.27;7.10;;;;;;;24.48;79.05;101663.41;5021470;28;20092;-71
2022/07/21 09:50:06;;;;;;;9.38;6.28;;;;;;;24.39;77.47;101652.09;5029166;28;20041;-71
2022/07/21 09:52:34;;;;;;;8.75;5.90;;;;;;;24.58;75.75;101663.72;5041857;28;20458;-72
2022/07/21 09:55:03;;;;;;;8.07;6.28;;;;;;;24.05;78.91;101665.03;5042107;28;20025;-72
2022/07/21 09:57:29;;;;;;;10.85;6.28;;;;;;;23.86;78.22;101658.72;5042166;28;20052;-71
2022/07/21 09:59:56;;;;;;;9.70;6.10;;;;;;;24.67;78.02;101661.56;5040464;28;20037;-71
2022/07/21 10:02:29;;;;;;;9.57;7.05;;;;;;;25.38;74.98;101658.22;5040309;28;20055;-71
2022/07/21 10:04:59;;;;;;;9.00;6.50;;;;;;;26.32;73.68;101663.03;5035197;28;20031;-71
2022/07/21 10:07:26;;;;;;;6.22;5.15;;;;;;;28.05;74.01;101661.31;5034701;28;20025;-72
2022/07/21 10:09:53;;;;;;;9.68;6.63;;;;;;;29.43;63.15;101667.75;5039136;28;20060;-72
2022/07/21 10:12:18;;;;;;;9.60;6.50;;;;;;;29.02;65.20;101668.09;5039514;28;20478;-71
2022/07/21 10:14:46;;;;;;;12.48;6.72;;;;;;;28.21;65.29;101663.19;5035818;28;20037;-71
2022/07/21 10:17:13;;;;;;;11.60;8.77;;;;;;;27.31;67.90;101666.75;5033501;28;20481;-71
2022/07/21 10:19:49;;;;;;;12.20;7.53;;;;;;;26.25;69.53;101651.50;5042367;28;20094;-71
2022/07/21 10:22:36;;;;;;;14.40;8.63;;;;;;;25.27;73.22;101661.72;5038360;28;20039;-71
2022/07/21 10:25:02;;;;;;;8.75;5.90;;;;;;;25.48;75.83;101651.44;5043549;28;20154;-71
2022/07/21 10:27:27;;;;;;;9.82;7.45;;;;;;;25.52;72.84;101653.47;5040794;28;20116;-72
2022/07/21 10:30:05;;;;;;;12.65;8.07;;;;;;;24.98;74.59;101653.31;5037934;28;20159;-72
2022/07/21 10:32:38;;;;;;;12.48;7.47;;;;;;;24.87;76.18;101656.78;5042499;28;20079;-71
2022/07/21 10:35:28;;;;;;;9.38;6.63;;;;;;;25.62;76.02;101648.31;5034267;28;20021;-71
2022/07/21 10:37:54;;;;;;;;;;;;;;;26.20;73.04;101649.50;5033114;28;20035;-70
2022/07/21 10:40:20;;;;;;;14.30;8.88;;;;;;;25.83;73.10;101646.97;5035602;28;20300;-71
2022/07/21 10:43:05;;;;;;;10.95;8.27;;;;;;;25.50;73.76;101622.31;5037152;28;20024;-71
2022/07/21 10:45:36;;;;;;;11.57;6.57;;;;;;;25.57;76.92;101640.09;5033539;28;20029;-71
2022/07/21 10:48:03;;;;;;;;;;;;;;;26.55;75.20;101639.72;5036148;28;20014;-70
2022/07/21 10:50:35;;;;;;;10.35;7.70;;;;;;;27.63;70.30;101640.81;5033417;28;20004;-71
2022/07/21 10:53:03;;;;;;;12.60;8.02;;;;;;;27.76;67.48;101636.94;5037218;28;20037;-71
2022/07/21 10:55:31;;;;;;;10.48;7.70;;;;;;;27.42;68.54;101639.63;5042898;28;20412;-71
2022/07/21 10:58:18;;;;;;;11.70;6.40;;;;;;;27.82;68.30;101637.84;5035497;28;20075;-72
2022/07/21 11:00:49;;;;;;;10.90;7.28;;;;;;;28.07;67.17;101640.19;5037949;28;20057;-71
2022/07/21 11:03:21;;;;;;;15.05;7.68;;;;;;;28.23;66.57;101642.03;5040198;28;20319;-71
2022/07/21 11:06:05;;;;;;;14.10;8.82;;;;;;;28.30;65.72;101641.88;5044965;28;20067;-71
2022/07/21 11:08:32;;;;;;;10.82;8.00;;;;;;;28.38;67.13;101637.91;5038167;28;20027;-71
2022/07/21 11:11:27;;;;;;;15.25;10.63;;;;;;;28.10;67.64;101639.69;5042259;28;20030;-72
2022/07/21 11:14:14;;;;;;;13.95;8.32;;;;;;;28.13;68.78;101643.78;5041574;28;20037;-72
2022/07/21 11:17:03;;;;;;;12.68;8.80;;;;;;;28.16;66.98;101644.13;5036452;28;20034;-72
2022/07/21 12:03:24;;;;;;;7.03;5.55;;;;;;;31.56;56.19;101644.75;5030701;28;20128;-70
2022/07/21 12:05:49;;;;;;;7.10;5.45;;;;;;;31.39;58.20;101638.69;5039763;28;20041;-70
2022/07/21 12:08:14;;;;;;;9.52;5.03;;;;;;;31.81;57.43;101640.38;5036890;28;20033;-71
2022/07/21 12:10:40;;;;;;;7.95;4.72;;;;;;;33.16;54.65;101637.78;5040591;28;20033;-70